createdAt,value
2022-11-16T00:00:39.387Z,10.96
2022-11-16T00:10:43.879Z,11.27
2022-11-16T00:20:46.948Z,11.19
2022-11-16T00:30:59.262Z,11.18
2022-11-16T00:41:02.480Z,11.14
2022-11-16T00:51:07.506Z,11.19
2022-11-16T01:01:12.315Z,11.20
2022-11-16T01:11:35.952Z,11.18
2022-11-16T01:21:39.036Z,11.21
2022-11-16T01:31:43.555Z,11.14
2022-11-16T01:41:46.775Z,11.15
2022-11-16T01:51:54.156Z,11.14
2022-11-16T02:01:57.954Z,11.31
2022-11-16T02:12:13.184Z,11.17
2022-11-16T02:22:21.583Z,11.16
2022-11-16T02:32:29.898Z,11.31
2022-11-16T02:42:37.052Z,11.30
2022-11-16T02:52:41.571Z,11.15
2022-11-16T03:02:49.783Z,11.31
2022-11-16T03:12:54.431Z,11.29
2022-11-16T03:23:00.514Z,11.44
2022-11-16T03:33:09.966Z,11.40
2022-11-16T03:43:13.439Z,11.38
2022-11-16T03:53:17.883Z,11.14
2022-11-16T04:03:21.693Z,11.42
2022-11-16T04:13:47.174Z,11.22
2022-11-16T04:24:10.428Z,11.41
2022-11-16T04:34:32.325Z,11.42
2022-11-16T04:44:50.129Z,10.96
2022-11-16T04:54:54.588Z,10.96
2022-11-16T05:04:57.716Z,11.24
2022-11-16T05:15:02.245Z,11.38
2022-11-16T05:25:06.634Z,11.31
2022-11-16T05:35:11.365Z,10.73
2022-11-16T05:45:19.815Z,11.17
2022-11-16T05:55:25.387Z,11.14
2022-11-16T06:05:28.466Z,11.33
2022-11-16T06:15:33.037Z,11.41
2022-11-16T06:25:36.247Z,11.38
2022-11-16T06:35:40.786Z,11.34
2022-11-16T06:45:43.976Z,11.36
2022-11-16T06:55:48.494Z,11.51
2022-11-16T07:05:51.652Z,11.48
2022-11-16T07:16:02.151Z,11.52
2022-11-16T07:26:06.833Z,11.72
2022-11-16T07:36:12.945Z,11.74
2022-11-16T07:46:45.260Z,11.55
2022-11-16T07:56:42.362Z,11.73
2022-11-16T08:06:47.289Z,11.65
2022-11-16T08:16:51.751Z,11.71
2022-11-16T08:26:57.190Z,11.80
2022-11-16T08:37:01.709Z,11.68
2022-11-16T08:47:04.994Z,11.59
2022-11-16T08:57:09.894Z,11.86
2022-11-16T09:07:13.068Z,11.93
2022-11-16T09:17:22.890Z,11.91
2022-11-16T09:27:26.449Z,11.80
2022-11-16T09:37:31.199Z,10.72
2022-11-16T09:47:42.696Z,10.08
2022-11-16T09:57:48.728Z,10.98
2022-11-16T10:07:54.259Z,10.51
2022-11-16T10:18:09.036Z,11.55
2022-11-16T10:28:27.686Z,10.41
2022-11-16T10:38:32.363Z,10.11
2022-11-16T10:48:41.226Z,11.43
2022-11-16T10:58:54.373Z,10.21
2022-11-16T11:09:16.008Z,11.61
2022-11-16T11:19:26.246Z,11.73
2022-11-16T11:29:32.584Z,11.33
2022-11-16T11:39:37.853Z,11.77
2022-11-16T11:49:43.588Z,12.18
2022-11-16T11:59:48.520Z,11.86
2022-11-16T12:09:54.479Z,11.79
2022-11-16T12:20:22.071Z,12.19
2022-11-16T12:30:25.828Z,12.23
2022-11-16T12:40:37.251Z,12.23
2022-11-16T12:50:54.611Z,10.80
2022-11-16T13:01:19.171Z,11.40
2022-11-16T13:11:26.827Z,11.71
2022-11-16T13:21:36.986Z,11.69
2022-11-16T13:31:44.740Z,11.88
2022-11-16T13:41:50.016Z,12.29
2022-11-16T13:51:55.020Z,12.42
2022-11-16T14:02:01.473Z,12.44
2022-11-16T14:12:52.849Z,12.52
2022-11-16T14:23:03.676Z,12.58
2022-11-16T14:33:06.838Z,12.54
2022-11-16T14:43:19.522Z,12.52
2022-11-16T14:53:41.864Z,12.53
2022-11-16T15:03:53.311Z,12.45
2022-11-16T15:13:56.726Z,12.57
2022-11-16T15:24:23.883Z,12.45
2022-11-16T15:34:24.301Z,12.45
2022-11-16T15:44:29.063Z,12.43
2022-11-16T15:54:54.559Z,12.39
2022-11-16T16:04:58.988Z,12.43
2022-11-16T16:15:23.314Z,12.34
2022-11-16T16:25:30.634Z,12.37
2022-11-16T16:35:33.678Z,12.30
2022-11-16T16:45:41.451Z,12.29
2022-11-16T16:55:46.017Z,12.38
2022-11-16T17:05:50.523Z,12.32
2022-11-16T17:15:53.866Z,12.19
2022-11-16T17:25:58.363Z,12.44
2022-11-16T17:36:03.757Z,12.16
2022-11-16T17:46:10.143Z,12.19
2022-11-16T17:56:14.744Z,12.20
2022-11-16T18:06:20.900Z,12.12
2022-11-16T18:16:25.881Z,12.27
2022-11-16T18:26:30.744Z,12.27
2022-11-16T18:36:34.145Z,12.28
2022-11-16T18:46:40.228Z,12.31
2022-11-16T18:56:43.385Z,12.18
2022-11-16T19:06:48.697Z,12.30
2022-11-16T19:16:56.926Z,12.28
2022-11-16T19:27:02.138Z,12.26
2022-11-16T19:37:05.980Z,12.24
2022-11-16T19:47:10.851Z,12.06
2022-11-16T19:57:15.653Z,12.17
2022-11-16T20:07:21.459Z,12.23
2022-11-16T20:17:25.055Z,12.25
2022-11-16T20:27:29.925Z,12.15
2022-11-16T20:37:33.202Z,12.16
2022-11-16T20:47:37.782Z,12.10
2022-11-16T20:57:41.270Z,12.16
2022-11-16T21:07:46.020Z,12.06
2022-11-16T21:17:49.121Z,12.12
2022-11-16T21:27:53.624Z,12.06
2022-11-16T21:37:56.768Z,12.14
2022-11-16T21:48:01.268Z,12.02
2022-11-16T21:58:04.597Z,12.18
2022-11-16T22:08:11.603Z,11.98
2022-11-16T22:18:14.708Z,11.66
2022-11-16T22:28:20.956Z,11.97
2022-11-16T22:38:24.637Z,12.03
2022-11-16T22:48:32.710Z,11.91
2022-11-16T22:58:36.541Z,11.71
2022-11-16T23:08:41.124Z,11.83
2022-11-16T23:18:44.299Z,11.87
2022-11-16T23:28:49.010Z,11.99
2022-11-16T23:38:52.203Z,11.81
2022-11-16T23:48:56.902Z,11.82
2022-11-16T23:59:00.042Z,11.74
